Hong Kong, China

8:41 PM CST on 三月 27, 2017 (GMT +0800)
Hong Kong International | | Change Station

高度 26 ft 22.31 °N, 113.91 °E | Updated 11 minutes ago

Partly Cloudy
所により曇
70 °F
体感気温 70 °F
10
風 変数 風 から

今日
高い -- | 低 -- °F
--% 降水確率
昨日
高い -- | 低 -- °F
Precip. -- インチ
気圧 30.18 インチ
視程 6.2 マイル
わずか 4000 ft
露点温度 52 °F
湿度 53%
降水 0.00 インチ
積雪深 利用不可。
6:22 AM 6:37 PM
二十六夜, 0% visible
METAR VHHH 271230Z 10009KT 060V120 9999 FEW040 21/11 Q1022 NOSIG
気圧 30.18 インチ
視程 6.2 マイル
わずか 4000 ft
露点温度 52 °F
湿度 53%
降水 0.00 インチ
積雪深 利用不可。
6:22 AM 6:37 PM
二十六夜, 0% visible
METAR VHHH 271230Z 10009KT 060V120 9999 FEW040 21/11 Q1022 NOSIG

Get Severe Weather Alerts

Thanks for signing up!

Be on the lookout for a verification email in your inbox.

You'll start receiving the daily forecast at 8 AM.

×

10-Day Weather Forecast

No radar image for this location.
×

Almanac

天文

Mar. 27, 2017 入り
実時間
常用薄明
航海薄明
天文薄明
可視光の長さ
可照時間
Tomorrow will be .
, % of the Moon is Illuminated

今日の極値

Country Highs Country Lows

Community

WunderPhotos

Upload Photos

1,962,540 写真がアップロードされました!

WunderBlog® & News

Nearby

空気品質

  空気品質 大気質指数 汚染物質
Not available.

積雪深

Station Depth 高度

地震活動

Distance Mag. Time & Date
Minimum magnitude displayed is 2.5.

地震活動

Distance Mag. Time & Date
Minimum magnitude displayed is 2.5.

沿岸の水温

地名 気温

Stations

最寄りの気象観測所

観測所位置 温度 体感気温(寒さ) 露点温度 湿度 Precip. 高度 更新日時 タイプする